sensor_id;sensor_type;location;lat;lon;timestamp;pressure;altitude;pressure_sealevel;temperature;humidity
5126;BME280;63008;53.112;8.896;2023-02-13T00:00:59;103838.44;;;7.74;100.00
5126;BME280;63008;53.112;8.896;2023-02-13T00:03:00;103830.59;;;7.78;100.00
5126;BME280;63008;53.112;8.896;2023-02-13T00:05:01;103827.28;;;7.76;100.00
5126;BME280;63008;53.112;8.896;2023-02-13T00:07:02;103825.81;;;7.85;100.00
5126;BME280;63008;53.112;8.896;2023-02-13T00:09:03;103835.94;;;7.84;100.00
5126;BME280;63008;53.112;8.896;2023-02-13T00:11:04;103824.06;;;7.79;100.00
5126;BME280;63008;53.112;8.896;2023-02-13T00:13:06;103825.13;;;7.78;100.00
5126;BME280;63008;53.112;8.896;2023-02-13T00:15:07;103829.53;;;7.79;100.00
5126;BME280;63008;53.112;8.896;2023-02-13T00:17:08;103824.88;;;7.79;100.00
5126;BME280;63008;53.112;8.896;2023-02-13T00:19:09;103822.84;;;7.86;100.00
5126;BME280;63008;53.112;8.896;2023-02-13T00:21:12;103820.16;;;7.75;99.62
5126;BME280;63008;53.112;8.896;2023-02-13T00:23:13;103815.25;;;7.77;99.87
5126;BME280;63008;53.112;8.896;2023-02-13T00:25:14;103818.00;;;7.77;99.62
5126;BME280;63008;53.112;8.896;2023-02-13T00:27:15;103811.94;;;7.75;99.74
5126;BME280;63008;53.112;8.896;2023-02-13T00:29:16;103817.06;;;7.71;99.89
5126;BME280;63008;53.112;8.896;2023-02-13T00:31:20;103804.19;;;7.72;99.84
5126;BME280;63008;53.112;8.896;2023-02-13T00:33:20;103810.38;;;7.79;99.69
5126;BME280;63008;53.112;8.896;2023-02-13T00:35:21;103809.91;;;7.82;99.60
5126;BME280;63008;53.112;8.896;2023-02-13T00:37:23;103807.88;;;7.77;99.75
5126;BME280;63008;53.112;8.896;2023-02-13T00:39:24;103811.34;;;7.84;99.97
5126;BME280;63008;53.112;8.896;2023-02-13T00:41:25;103816.47;;;7.69;99.69
5126;BME280;63008;53.112;8.896;2023-02-13T00:43:26;103808.84;;;7.71;100.00
5126;BME280;63008;53.112;8.896;2023-02-13T00:45:27;103806.22;;;7.76;100.00
5126;BME280;63008;53.112;8.896;2023-02-13T00:47:28;103812.97;;;7.74;100.00
5126;BME280;63008;53.112;8.896;2023-02-13T00:49:29;103808.72;;;7.78;100.00
5126;BME280;63008;53.112;8.896;2023-02-13T00:51:30;103812.66;;;7.70;100.00
5126;BME280;63008;53.112;8.896;2023-02-13T00:53:31;103809.91;;;7.70;100.00
5126;BME280;63008;53.112;8.896;2023-02-13T00:55:33;103814.19;;;7.78;100.00
5126;BME280;63008;53.112;8.896;2023-02-13T00:57:35;103812.41;;;7.72;100.00
5126;BME280;63008;53.112;8.896;2023-02-13T00:59:36;103812.97;;;7.74;100.00
5126;BME280;63008;53.112;8.896;2023-02-13T01:01:37;103813.94;;;7.79;100.00
5126;BME280;63008;53.112;8.896;2023-02-13T01:03:40;103811.09;;;7.74;100.00
5126;BME280;63008;53.112;8.896;2023-02-13T01:05:42;103817.88;;;7.72;100.00
5126;BME280;63008;53.112;8.896;2023-02-13T01:07:43;103817.88;;;7.72;100.00
5126;BME280;63008;53.112;8.896;2023-02-13T01:09:44;103813.59;;;7.76;100.00
5126;BME280;63008;53.112;8.896;2023-02-13T01:11:45;103813.25;;;7.72;100.00
5126;BME280;63008;53.112;8.896;2023-02-13T01:13:46;103823.56;;;7.82;100.00
5126;BME280;63008;53.112;8.896;2023-02-13T01:15:48;103817.41;;;7.75;100.00
5126;BME280;63008;53.112;8.896;2023-02-13T01:17:49;103823.91;;;7.74;100.00
5126;BME280;63008;53.112;8.896;2023-02-13T01:19:52;103814.53;;;7.70;100.00
5126;BME280;63008;53.112;8.896;2023-02-13T01:21:53;103817.75;;;7.67;100.00
5126;BME280;63008;53.112;8.896;2023-02-13T01:23:54;103801.25;;;7.62;100.00
5126;BME280;63008;53.112;8.896;2023-02-13T01:25:54;103803.75;;;7.75;100.00
5126;BME280;63008;53.112;8.896;2023-02-13T01:27:55;103815.25;;;7.77;100.00
5126;BME280;63008;53.112;8.896;2023-02-13T01:29:57;103810.50;;;7.84;100.00
5126;BME280;63008;53.112;8.896;2023-02-13T01:32:00;103810.09;;;7.92;99.63
5126;BME280;63008;53.112;8.896;2023-02-13T01:34:03;103804.31;;;7.88;99.18
5126;BME280;63008;53.112;8.896;2023-02-13T01:36:09;103808.34;;;7.86;99.62
5126;BME280;63008;53.112;8.896;2023-02-13T01:38:10;103813.13;;;7.79;99.66
5126;BME280;63008;53.112;8.896;2023-02-13T01:40:13;103808.94;;;7.76;99.89
5126;BME280;63008;53.112;8.896;2023-02-13T01:42:16;103803.75;;;7.75;100.00
5126;BME280;63008;53.112;8.896;2023-02-13T01:44:47;103799.69;;;7.77;100.00
5126;BME280;63008;53.112;8.896;2023-02-13T01:46:48;103795.19;;;7.71;100.00
5126;BME280;63008;53.112;8.896;2023-02-13T01:48:50;103794.09;;;7.72;100.00
5126;BME280;63008;53.112;8.896;2023-02-13T01:50:57;103788.19;;;7.64;100.00
5126;BME280;63008;53.112;8.896;2023-02-13T01:55:20;103781.63;;;7.76;100.00
5126;BME280;63008;53.112;8.896;2023-02-13T01:57:23;103779.47;;;7.78;99.95
5126;BME280;63008;53.112;8.896;2023-02-13T01:59:32;103781.13;;;7.79;99.98
5126;BME280;63008;53.112;8.896;2023-02-13T02:01:35;103779.97;;;7.64;99.81
5126;BME280;63008;53.112;8.896;2023-02-13T02:03:46;103776.53;;;7.68;100.00
5126;BME280;63008;53.112;8.896;2023-02-13T02:05:50;103776.75;;;7.67;100.00
5126;BME280;63008;53.112;8.896;2023-02-13T02:07:53;103768.56;;;7.67;100.00
5126;BME280;63008;53.112;8.896;2023-02-13T02:10:03;103770.94;;;7.63;100.00
5126;BME280;63008;53.112;8.896;2023-02-13T02:14:26;103763.94;;;7.67;100.00
5126;BME280;63008;53.112;8.896;2023-02-13T02:16:31;103763.69;;;7.69;100.00
5126;BME280;63008;53.112;8.896;2023-02-13T02:18:32;103770.81;;;7.70;100.00
5126;BME280;63008;53.112;8.896;2023-02-13T02:26:02;103769.03;;;7.64;99.90
5126;BME280;63008;53.112;8.896;2023-02-13T02:30:41;103762.03;;;7.68;100.00
5126;BME280;63008;53.112;8.896;2023-02-13T02:33:01;103758.22;;;7.69;100.00
5126;BME280;63008;53.112;8.896;2023-02-13T02:35:17;103754.53;;;7.63;99.94
5126;BME280;63008;53.112;8.896;2023-02-13T02:40:23;103754.75;;;7.73;100.00
5126;BME280;63008;53.112;8.896;2023-02-13T02:42:41;103747.53;;;7.67;99.92
5126;BME280;63008;53.112;8.896;2023-02-13T02:45:16;103749.06;;;7.63;99.84
5126;BME280;63008;53.112;8.896;2023-02-13T02:47:34;103743.72;;;7.68;99.74
5126;BME280;63008;53.112;8.896;2023-02-13T02:52:50;103741.94;;;7.62;99.97
5126;BME280;63008;53.112;8.896;2023-02-13T02:55:16;103741.72;;;7.64;100.00
5126;BME280;63008;53.112;8.896;2023-02-13T02:57:24;103746.91;;;7.65;99.72
5126;BME280;63008;53.112;8.896;2023-02-13T02:59:47;103753.13;;;7.61;99.59
5126;BME280;63008;53.112;8.896;2023-02-13T03:02:07;103746.69;;;7.67;99.78
5126;BME280;63008;53.112;8.896;2023-02-13T03:04:52;103749.31;;;7.62;99.54
5126;BME280;63008;53.112;8.896;2023-02-13T03:07:16;103745.25;;;7.64;99.82
5126;BME280;63008;53.112;8.896;2023-02-13T03:09:22;103740.63;;;7.65;99.78
5126;BME280;63008;53.112;8.896;2023-02-13T03:11:45;103734.69;;;7.68;99.50
5126;BME280;63008;53.112;8.896;2023-02-13T03:14:08;103736.25;;;7.64;99.38
5126;BME280;63008;53.112;8.896;2023-02-13T03:16:14;103725.06;;;7.65;99.50
5126;BME280;63008;53.112;8.896;2023-02-13T03:18:38;103733.25;;;7.65;99.48
5126;BME280;63008;53.112;8.896;2023-02-13T03:21:10;103725.19;;;7.70;99.53
5126;BME280;63008;53.112;8.896;2023-02-13T03:25:39;103727.91;;;7.70;99.49
5126;BME280;63008;53.112;8.896;2023-02-13T03:28:11;103735.97;;;7.65;99.67
5126;BME280;63008;53.112;8.896;2023-02-13T03:30:55;103738.13;;;7.63;99.93
5126;BME280;63008;53.112;8.896;2023-02-13T03:35:25;103739.66;;;7.71;99.79
5126;BME280;63008;53.112;8.896;2023-02-13T03:37:49;103732.91;;;7.73;99.59
5126;BME280;63008;53.112;8.896;2023-02-13T03:40:07;103741.31;;;7.72;99.63
5126;BME280;63008;53.112;8.896;2023-02-13T03:42:58;103742.06;;;7.67;99.51
5126;BME280;63008;53.112;8.896;2023-02-13T03:44:42;103747.19;;;7.64;99.79
5126;BME280;63008;53.112;8.896;2023-02-13T03:46:45;103750.28;;;7.67;99.83
5126;BME280;63008;53.112;8.896;2023-02-13T03:48:47;103750.97;;;7.74;99.71
5126;BME280;63008;53.112;8.896;2023-02-13T03:51:09;103744.41;;;7.75;99.48
5126;BME280;63008;53.112;8.896;2023-02-13T03:53:13;103748.13;;;7.69;99.29
5126;BME280;63008;53.112;8.896;2023-02-13T03:55:24;103735.41;;;7.75;99.35
5126;BME280;63008;53.112;8.896;2023-02-13T03:57:47;103744.91;;;7.72;99.08
5126;BME280;63008;53.112;8.896;2023-02-13T04:00:11;103739.06;;;7.69;98.92
5126;BME280;63008;53.112;8.896;2023-02-13T04:02:17;103741.72;;;7.64;99.02
5126;BME280;63008;53.112;8.896;2023-02-13T04:04:27;103741.94;;;7.62;99.24
5126;BME280;63008;53.112;8.896;2023-02-13T04:08:50;103741.22;;;7.67;99.27
5126;BME280;63008;53.112;8.896;2023-02-13T04:11:01;103737.19;;;7.69;99.12
5126;BME280;63008;53.112;8.896;2023-02-13T04:13:12;103746.47;;;7.68;99.03
5126;BME280;63008;53.112;8.896;2023-02-13T04:15:19;103742.16;;;7.72;99.18
5126;BME280;63008;53.112;8.896;2023-02-13T04:17:26;103738.13;;;7.75;98.85
5126;BME280;63008;53.112;8.896;2023-02-13T04:19:31;103738.94;;;7.75;98.63
5126;BME280;63008;53.112;8.896;2023-02-13T04:21:34;103744.06;;;7.72;98.61
5126;BME280;63008;53.112;8.896;2023-02-13T04:23:35;103751.66;;;7.70;98.81
5126;BME280;63008;53.112;8.896;2023-02-13T04:25:39;103751.66;;;7.70;98.92
5126;BME280;63008;53.112;8.896;2023-02-13T04:27:41;103749.44;;;7.67;99.00
5126;BME280;63008;53.112;8.896;2023-02-13T04:29:42;103750.72;;;7.64;99.14
5126;BME280;63008;53.112;8.896;2023-02-13T04:31:43;103751.56;;;7.65;99.45
5126;BME280;63008;53.112;8.896;2023-02-13T04:33:45;103746.09;;;7.65;99.49
5126;BME280;63008;53.112;8.896;2023-02-13T04:35:46;103744.09;;;7.60;99.61
5126;BME280;63008;53.112;8.896;2023-02-13T04:37:47;103747.19;;;7.64;99.72
5126;BME280;63008;53.112;8.896;2023-02-13T04:39:48;103748.94;;;7.70;99.44
5126;BME280;63008;53.112;8.896;2023-02-13T04:41:49;103741.22;;;7.67;99.44
5126;BME280;63008;53.112;8.896;2023-02-13T04:43:50;103739.22;;;7.62;99.34
5126;BME280;63008;53.112;8.896;2023-02-13T04:45:52;103737.09;;;7.53;99.72
5126;BME280;63008;53.112;8.896;2023-02-13T04:47:54;103742.19;;;7.61;100.00
5126;BME280;63008;53.112;8.896;2023-02-13T04:49:55;103741.13;;;7.62;99.37
5126;BME280;63008;53.112;8.896;2023-02-13T04:51:56;103739.94;;;7.58;99.87
5126;BME280;63008;53.112;8.896;2023-02-13T04:53:57;103734.31;;;7.64;99.49
5126;BME280;63008;53.112;8.896;2023-02-13T04:55:58;103729.84;;;7.58;99.48
5126;BME280;63008;53.112;8.896;2023-02-13T04:57:59;103736.72;;;7.61;99.75
5126;BME280;63008;53.112;8.896;2023-02-13T05:00:00;103736.28;;;7.52;99.74
5126;BME280;63008;53.112;8.896;2023-02-13T05:02:01;103741.00;;;7.57;99.95
5126;BME280;63008;53.112;8.896;2023-02-13T05:04:02;103737.53;;;7.61;99.91
5126;BME280;63008;53.112;8.896;2023-02-13T05:06:03;103734.59;;;7.63;99.82
5126;BME280;63008;53.112;8.896;2023-02-13T05:08:05;103737.91;;;7.65;99.57
5126;BME280;63008;53.112;8.896;2023-02-13T05:10:09;103735.97;;;7.65;99.71
5126;BME280;63008;53.112;8.896;2023-02-13T05:12:10;103740.06;;;7.63;99.70
5126;BME280;63008;53.112;8.896;2023-02-13T05:14:11;103744.94;;;7.61;99.66
5126;BME280;63008;53.112;8.896;2023-02-13T05:16:12;103751.94;;;7.57;99.93
5126;BME280;63008;53.112;8.896;2023-02-13T05:18:13;103746.09;;;7.65;100.00
5126;BME280;63008;53.112;8.896;2023-02-13T05:20:15;103750.41;;;7.61;99.94
5126;BME280;63008;53.112;8.896;2023-02-13T05:22:16;103748.59;;;7.66;99.82
5126;BME280;63008;53.112;8.896;2023-02-13T05:24:36;103744.53;;;7.69;99.69
5126;BME280;63008;53.112;8.896;2023-02-13T05:26:37;103744.66;;;7.62;99.55
5126;BME280;63008;53.112;8.896;2023-02-13T05:28:38;103736.00;;;7.54;99.57
5126;BME280;63008;53.112;8.896;2023-02-13T05:30:57;103737.38;;;7.40;100.00
5126;BME280;63008;53.112;8.896;2023-02-13T05:32:58;103739.47;;;7.38;100.00
5126;BME280;63008;53.112;8.896;2023-02-13T05:34:59;103744.81;;;7.44;100.00
5126;BME280;63008;53.112;8.896;2023-02-13T05:37:00;103737.22;;;7.46;100.00
5126;BME280;63008;53.112;8.896;2023-02-13T05:39:01;103739.94;;;7.46;100.00
5126;BME280;63008;53.112;8.896;2023-02-13T05:41:03;103747.91;;;7.59;100.00
5126;BME280;63008;53.112;8.896;2023-02-13T05:43:04;103741.34;;;7.60;100.00
5126;BME280;63008;53.112;8.896;2023-02-13T05:45:05;103748.59;;;7.66;99.92
5126;BME280;63008;53.112;8.896;2023-02-13T05:47:06;103751.47;;;7.60;99.84
5126;BME280;63008;53.112;8.896;2023-02-13T05:49:08;103747.75;;;7.66;99.87
5126;BME280;63008;53.112;8.896;2023-02-13T05:51:10;103754.31;;;7.65;99.62
5126;BME280;63008;53.112;8.896;2023-02-13T05:53:11;103758.94;;;7.53;99.82
5126;BME280;63008;53.112;8.896;2023-02-13T05:55:13;103764.53;;;7.58;100.00
5126;BME280;63008;53.112;8.896;2023-02-13T05:57:14;103757.75;;;7.60;99.95
5126;BME280;63008;53.112;8.896;2023-02-13T05:59:14;103755.72;;;7.56;99.64
5126;BME280;63008;53.112;8.896;2023-02-13T06:01:15;103764.66;;;7.63;99.99
5126;BME280;63008;53.112;8.896;2023-02-13T06:03:19;103755.38;;;7.64;99.88
5126;BME280;63008;53.112;8.896;2023-02-13T06:05:20;103760.59;;;7.65;99.70
5126;BME280;63008;53.112;8.896;2023-02-13T06:07:21;103750.72;;;7.64;99.67
5126;BME280;63008;53.112;8.896;2023-02-13T06:09:22;103755.38;;;7.64;99.65
5126;BME280;63008;53.112;8.896;2023-02-13T06:11:23;103755.38;;;7.64;99.77
5126;BME280;63008;53.112;8.896;2023-02-13T06:13:24;103763.69;;;7.69;99.56
5126;BME280;63008;53.112;8.896;2023-02-13T06:15:25;103760.00;;;7.75;99.52
5126;BME280;63008;53.112;8.896;2023-02-13T06:17:26;103763.69;;;7.57;99.24
5126;BME280;63008;53.112;8.896;2023-02-13T06:19:27;103758.97;;;7.41;100.00
5126;BME280;63008;53.112;8.896;2023-02-13T06:21:28;103762.75;;;7.52;100.00
5126;BME280;63008;53.112;8.896;2023-02-13T06:23:29;103770.13;;;7.51;100.00
5126;BME280;63008;53.112;8.896;2023-02-13T06:25:30;103771.19;;;7.62;100.00
5126;BME280;63008;53.112;8.896;2023-02-13T06:27:31;103770.16;;;7.40;100.00
5126;BME280;63008;53.112;8.896;2023-02-13T06:29:32;103767.28;;;7.35;100.00
5126;BME280;63008;53.112;8.896;2023-02-13T06:31:34;103764.78;;;7.45;100.00
5126;BME280;63008;53.112;8.896;2023-02-13T06:33:35;103770.25;;;7.56;100.00
5126;BME280;63008;53.112;8.896;2023-02-13T06:35:36;103771.78;;;7.64;100.00
5126;BME280;63008;53.112;8.896;2023-02-13T06:37:37;103772.00;;;7.62;100.00
5126;BME280;63008;53.112;8.896;2023-02-13T06:39:40;103771.28;;;7.67;100.00
5126;BME280;63008;53.112;8.896;2023-02-13T06:41:40;103775.19;;;7.71;99.88
5126;BME280;63008;53.112;8.896;2023-02-13T06:43:41;103779.38;;;7.62;99.96
5126;BME280;63008;53.112;8.896;2023-02-13T06:45:43;103778.44;;;7.56;100.00
5126;BME280;63008;53.112;8.896;2023-02-13T06:47:45;103782.47;;;7.54;100.00
5126;BME280;63008;53.112;8.896;2023-02-13T06:49:47;103781.06;;;7.63;100.00
5126;BME280;63008;53.112;8.896;2023-02-13T06:51:48;103791.00;;;7.69;100.00
5126;BME280;63008;53.112;8.896;2023-02-13T06:53:49;103791.84;;;7.69;99.91
5126;BME280;63008;53.112;8.896;2023-02-13T06:55:53;103788.78;;;7.43;99.80
5126;BME280;63008;53.112;8.896;2023-02-13T06:57:55;103793.78;;;7.34;100.00
5126;BME280;63008;53.112;8.896;2023-02-13T06:59:56;103787.25;;;7.47;100.00
5126;BME280;63008;53.112;8.896;2023-02-13T07:01:57;103792.91;;;7.57;100.00
5126;BME280;63008;53.112;8.896;2023-02-13T07:03:58;103799.34;;;7.62;100.00
5126;BME280;63008;53.112;8.896;2023-02-13T07:05:59;103799.91;;;7.64;100.00
5126;BME280;63008;53.112;8.896;2023-02-13T07:08:00;103802.06;;;7.62;100.00
5126;BME280;63008;53.112;8.896;2023-02-13T07:10:01;103802.19;;;7.44;100.00
5126;BME280;63008;53.112;8.896;2023-02-13T07:12:03;103803.97;;;7.39;100.00
5126;BME280;63008;53.112;8.896;2023-02-13T07:14:08;103801.28;;;7.50;100.00
5126;BME280;63008;53.112;8.896;2023-02-13T07:16:09;103800.69;;;7.48;100.00
5126;BME280;63008;53.112;8.896;2023-02-13T07:18:10;103794.38;;;7.48;100.00
5126;BME280;63008;53.112;8.896;2023-02-13T07:20:11;103797.09;;;7.48;100.00
5126;BME280;63008;53.112;8.896;2023-02-13T07:22:13;103797.34;;;7.58;100.00
5126;BME280;63008;53.112;8.896;2023-02-13T07:24:13;103805.06;;;7.61;100.00
5126;BME280;63008;53.112;8.896;2023-02-13T07:26:14;103797.09;;;7.59;100.00
5126;BME280;63008;53.112;8.896;2023-02-13T07:28:15;103799.59;;;7.61;100.00
5126;BME280;63008;53.112;8.896;2023-02-13T07:30:17;103796.88;;;7.61;100.00
5126;BME280;63008;53.112;8.896;2023-02-13T07:32:17;103807.31;;;7.64;100.00
5126;BME280;63008;53.112;8.896;2023-02-13T07:34:18;103806.00;;;7.66;100.00
5126;BME280;63008;53.112;8.896;2023-02-13T07:36:19;103804.94;;;7.67;100.00
5126;BME280;63008;53.112;8.896;2023-02-13T07:38:20;103804.47;;;7.59;100.00
5126;BME280;63008;53.112;8.896;2023-02-13T07:40:22;103806.22;;;7.65;100.00
5126;BME280;63008;53.112;8.896;2023-02-13T07:42:23;103806.22;;;7.65;100.00
5126;BME280;63008;53.112;8.896;2023-02-13T07:44:24;103807.41;;;7.69;100.00
5126;BME280;63008;53.112;8.896;2023-02-13T07:46:25;103806.34;;;7.58;99.78
5126;BME280;63008;53.112;8.896;2023-02-13T07:48:26;103810.88;;;7.41;100.00
5126;BME280;63008;53.112;8.896;2023-02-13T07:50:27;103810.28;;;7.39;100.00
5126;BME280;63008;53.112;8.896;2023-02-13T07:52:28;103818.72;;;7.49;100.00
5126;BME280;63008;53.112;8.896;2023-02-13T07:54:29;103805.41;;;7.53;100.00
5126;BME280;63008;53.112;8.896;2023-02-13T07:56:30;103809.69;;;7.60;100.00
5126;BME280;63008;53.112;8.896;2023-02-13T07:58:31;103809.78;;;7.65;100.00
5126;BME280;63008;53.112;8.896;2023-02-13T08:00:32;103806.69;;;7.73;100.00
5126;BME280;63008;53.112;8.896;2023-02-13T08:02:33;103804.06;;;7.78;100.00
5126;BME280;63008;53.112;8.896;2023-02-13T08:04:34;103813.59;;;7.76;99.98
5126;BME280;63008;53.112;8.896;2023-02-13T08:06:38;103809.34;;;7.68;100.00
5126;BME280;63008;53.112;8.896;2023-02-13T08:08:39;103806.59;;;7.68;100.00
5126;BME280;63008;53.112;8.896;2023-02-13T08:10:39;103804.78;;;7.74;100.00
5126;BME280;63008;53.112;8.896;2023-02-13T08:12:59;103807.88;;;7.77;100.00
5126;BME280;63008;53.112;8.896;2023-02-13T08:15:01;103810.50;;;7.84;99.85
5126;BME280;63008;53.112;8.896;2023-02-13T08:17:02;103817.50;;;7.91;99.50
5126;BME280;63008;53.112;8.896;2023-02-13T08:19:03;103812.41;;;7.72;99.83
5126;BME280;63008;53.112;8.896;2023-02-13T08:21:04;103812.53;;;7.77;99.93
5126;BME280;63008;53.112;8.896;2023-02-13T08:23:06;103812.97;;;7.74;99.85
5126;BME280;63008;53.112;8.896;2023-02-13T08:25:09;103807.16;;;7.82;100.00
5126;BME280;63008;53.112;8.896;2023-02-13T08:27:11;103807.53;;;7.85;99.84
5126;BME280;63008;53.112;8.896;2023-02-13T08:29:12;103820.13;;;7.86;99.69
5126;BME280;63008;53.112;8.896;2023-02-13T08:31:13;103810.38;;;7.90;99.62
5126;BME280;63008;53.112;8.896;2023-02-13T08:33:14;103808.56;;;7.96;99.45
5126;BME280;63008;53.112;8.896;2023-02-13T08:35:15;103815.69;;;7.97;99.01
5126;BME280;63008;53.112;8.896;2023-02-13T08:37:17;103817.38;;;7.98;98.74
5126;BME280;63008;53.112;8.896;2023-02-13T08:39:18;103819.38;;;7.91;99.16
5126;BME280;63008;53.112;8.896;2023-02-13T08:41:19;103816.94;;;7.78;99.80
5126;BME280;63008;53.112;8.896;2023-02-13T08:43:22;103820.38;;;7.73;100.00
5126;BME280;63008;53.112;8.896;2023-02-13T08:45:23;103819.31;;;7.63;100.00
5126;BME280;63008;53.112;8.896;2023-02-13T08:47:24;103816.91;;;7.55;100.00
5126;BME280;63008;53.112;8.896;2023-02-13T08:49:25;103819.66;;;7.55;100.00
5126;BME280;63008;53.112;8.896;2023-02-13T08:51:26;103821.22;;;7.51;100.00
5126;BME280;63008;53.112;8.896;2023-02-13T08:53:27;103813.59;;;7.53;100.00
5126;BME280;63008;53.112;8.896;2023-02-13T08:55:28;103813.81;;;7.74;100.00
5126;BME280;63008;53.112;8.896;2023-02-13T08:57:31;103822.97;;;7.91;100.00
5126;BME280;63008;53.112;8.896;2023-02-13T08:59:32;103814.38;;;7.99;100.00
5126;BME280;63008;53.112;8.896;2023-02-13T09:01:33;103822.97;;;7.91;100.00
5126;BME280;63008;53.112;8.896;2023-02-13T09:03:34;103821.31;;;7.90;100.00
5126;BME280;63008;53.112;8.896;2023-02-13T09:05:35;103821.56;;;7.77;100.00
5126;BME280;63008;53.112;8.896;2023-02-13T09:07:36;103823.44;;;7.88;100.00
5126;BME280;63008;53.112;8.896;2023-02-13T09:09:37;103829.38;;;7.97;100.00
5126;BME280;63008;53.112;8.896;2023-02-13T09:11:38;103823.66;;;7.98;100.00
5126;BME280;63008;53.112;8.896;2023-02-13T09:13:39;103828.53;;;7.96;99.34
5126;BME280;63008;53.112;8.896;2023-02-13T09:15:40;103832.69;;;7.99;99.73
5126;BME280;63008;53.112;8.896;2023-02-13T09:17:41;103831.97;;;7.92;99.50
5126;BME280;63008;53.112;8.896;2023-02-13T09:19:42;103825.34;;;7.88;99.87
5126;BME280;63008;53.112;8.896;2023-02-13T09:21:43;103831.66;;;7.88;100.00
5126;BME280;63008;53.112;8.896;2023-02-13T09:23:44;103830.44;;;7.96;100.00
5126;BME280;63008;53.112;8.896;2023-02-13T09:25:45;103829.00;;;7.93;100.00
5126;BME280;63008;53.112;8.896;2023-02-13T09:27:46;103822.28;;;7.84;100.00
5126;BME280;63008;53.112;8.896;2023-02-13T09:29:47;103823.41;;;8.00;100.00
5126;BME280;63008;53.112;8.896;2023-02-13T09:31:48;103821.50;;;8.00;100.00
5126;BME280;63008;53.112;8.896;2023-02-13T09:33:49;103824.13;;;7.95;100.00
5126;BME280;63008;53.112;8.896;2023-02-13T09:35:50;103834.59;;;7.98;100.00
5126;BME280;63008;53.112;8.896;2023-02-13T09:37:55;103829.88;;;7.94;99.69
5126;BME280;63008;53.112;8.896;2023-02-13T09:39:56;103829.50;;;7.90;99.66
5126;BME280;63008;53.112;8.896;2023-02-13T09:41:57;103822.84;;;7.86;100.00
5126;BME280;63008;53.112;8.896;2023-02-13T09:44:00;103824.97;;;7.96;100.00
5126;BME280;63008;53.112;8.896;2023-02-13T09:46:18;103828.84;;;8.11;99.97
5126;BME280;63008;53.112;8.896;2023-02-13T09:48:29;103824.81;;;8.25;98.96
5126;BME280;63008;53.112;8.896;2023-02-13T09:50:31;103817.47;;;8.03;98.53
5126;BME280;63008;53.112;8.896;2023-02-13T09:52:36;103828.78;;;7.95;99.28
5126;BME280;63008;53.112;8.896;2023-02-13T09:54:38;103834.25;;;7.95;99.41
5126;BME280;63008;53.112;8.896;2023-02-13T09:56:46;103821.53;;;7.89;99.49
5126;BME280;63008;53.112;8.896;2023-02-13T09:59:07;103836.97;;;7.83;99.94
5126;BME280;63008;53.112;8.896;2023-02-13T10:01:35;103832.97;;;7.74;100.00
5126;BME280;63008;53.112;8.896;2023-02-13T10:06:14;103832.13;;;7.74;100.00
5126;BME280;63008;53.112;8.896;2023-02-13T10:08:33;103838.31;;;7.81;100.00
5126;BME280;63008;53.112;8.896;2023-02-13T10:15:47;103834.59;;;7.87;99.25
5126;BME280;63008;53.112;8.896;2023-02-13T10:17:57;103834.22;;;8.06;99.31
5126;BME280;63008;53.112;8.896;2023-02-13T10:22:34;103835.78;;;8.02;99.04
5126;BME280;63008;53.112;8.896;2023-02-13T10:24:47;103841.88;;;7.93;98.60
5126;BME280;63008;53.112;8.896;2023-02-13T10:26:48;103839.50;;;7.85;98.86
5126;BME280;63008;53.112;8.896;2023-02-13T10:28:59;103842.72;;;7.82;99.56
5126;BME280;63008;53.112;8.896;2023-02-13T10:31:21;103841.53;;;7.78;99.85
5126;BME280;63008;53.112;8.896;2023-02-13T10:33:30;103840.94;;;7.87;100.00
5126;BME280;63008;53.112;8.896;2023-02-13T10:35:34;103842.56;;;8.00;99.81
5126;BME280;63008;53.112;8.896;2023-02-13T10:37:36;103843.53;;;7.94;99.19
5126;BME280;63008;53.112;8.896;2023-02-13T10:39:40;103832.25;;;7.90;99.07
5126;BME280;63008;53.112;8.896;2023-02-13T10:41:53;103829.59;;;7.95;99.07
5126;BME280;63008;53.112;8.896;2023-02-13T10:51:30;103839.13;;;8.44;97.75
5126;BME280;63008;53.112;8.896;2023-02-13T10:53:40;103845.16;;;8.06;95.13
5126;BME280;63008;53.112;8.896;2023-02-13T10:55:58;103837.91;;;8.12;96.23
5126;BME280;63008;53.112;8.896;2023-02-13T11:00:11;103839.94;;;7.93;95.18
5126;BME280;63008;53.112;8.896;2023-02-13T11:02:24;103829.84;;;8.05;95.48
5126;BME280;63008;53.112;8.896;2023-02-13T11:04:27;103831.50;;;8.18;94.60
5126;BME280;63008;53.112;8.896;2023-02-13T11:06:28;103819.44;;;8.30;93.96
5126;BME280;63008;53.112;8.896;2023-02-13T11:08:33;103824.81;;;8.25;92.11
5126;BME280;63008;53.112;8.896;2023-02-13T11:10:35;103815.41;;;8.33;91.06
5126;BME280;63008;53.112;8.896;2023-02-13T11:12:36;103819.88;;;8.39;91.62
5126;BME280;63008;53.112;8.896;2023-02-13T11:14:52;103811.19;;;8.42;90.39
5126;BME280;63008;53.112;8.896;2023-02-13T11:18:55;103821.69;;;8.33;90.31
5126;BME280;63008;53.112;8.896;2023-02-13T11:25:27;103810.16;;;8.31;90.03
5126;BME280;63008;53.112;8.896;2023-02-13T11:27:35;103812.69;;;8.10;89.09
5126;BME280;63008;53.112;8.896;2023-02-13T11:29:50;103816.19;;;7.82;88.38
5126;BME280;63008;53.112;8.896;2023-02-13T11:32:20;103819.75;;;7.83;90.28
5126;BME280;63008;53.112;8.896;2023-02-13T11:34:26;103814.53;;;7.81;90.38
5126;BME280;63008;53.112;8.896;2023-02-13T11:36:32;103809.31;;;7.80;89.84
5126;BME280;63008;53.112;8.896;2023-02-13T11:38:33;103807.66;;;7.79;89.52
5126;BME280;63008;53.112;8.896;2023-02-13T11:40:34;103803.47;;;7.76;88.94
5126;BME280;63008;53.112;8.896;2023-02-13T11:42:35;103798.44;;;7.96;89.71
5126;BME280;63008;53.112;8.896;2023-02-13T11:44:37;103793.88;;;8.13;87.51
5126;BME280;63008;53.112;8.896;2023-02-13T11:46:45;103789.34;;;8.30;86.10
5126;BME280;63008;53.112;8.896;2023-02-13T11:48:58;103786.25;;;8.15;85.86
5126;BME280;63008;53.112;8.896;2023-02-13T11:51:00;103776.94;;;8.00;87.08
5126;BME280;63008;53.112;8.896;2023-02-13T11:53:05;103790.38;;;8.01;88.34
5126;BME280;63008;53.112;8.896;2023-02-13T11:55:30;103795.44;;;8.21;86.37
5126;BME280;63008;53.112;8.896;2023-02-13T11:57:34;103794.72;;;8.25;83.58